Time;durP1;ratioP1;P1;durP2;ratioP2;P2;SDS_P1;SDS_P2;PMS_P1;PMS_P2;Temp;Humidity;BMP_temperature;BMP_pressure;BME280_temperature;BME280_humidity;BME280_pressure;Samples;Min_cycle;Max_cycle;Signal;HPM_P1;HPM_P2
2022/07/13 00:00:28;;;;;;;11.45;8.30;;;;;;;20.98;100.00;102052.47;5175178;27;20057;-57
2022/07/13 00:02:56;;;;;;;9.55;7.80;;;;;;;21.11;100.00;102036.16;5173421;27;20066;-55
2022/07/13 00:05:25;;;;;;;10.77;7.78;;;;;;;21.21;100.00;102018.25;5176829;27;20129;-58
2022/07/13 00:07:53;;;;;;;9.60;7.80;;;;;;;21.20;100.00;102021.94;5177366;27;20042;-58
2022/07/13 00:10:21;;;;;;;10.27;8.35;;;;;;;21.18;100.00;102025.75;5173971;27;20052;-58
2022/07/13 00:12:50;;;;;;;11.35;7.93;;;;;;;21.03;100.00;102019.97;5172973;27;20083;-52
2022/07/13 00:15:19;;;;;;;10.52;7.95;;;;;;;21.09;100.00;102014.91;5175636;27;20036;-56
2022/07/13 00:17:47;;;;;;;11.88;8.55;;;;;;;20.99;100.00;102007.88;5176741;27;20094;-57
2022/07/13 00:20:15;;;;;;;10.40;8.00;;;;;;;21.05;100.00;102005.47;5176836;27;20065;-57
2022/07/13 00:22:43;;;;;;;10.40;8.60;;;;;;;21.11;100.00;101996.03;5176788;27;20091;-57
2022/07/13 00:25:11;;;;;;;12.32;8.80;;;;;;;21.14;100.00;101995.75;5155246;27;20057;-56
2022/07/13 00:27:39;;;;;;;11.40;8.55;;;;;;;21.03;100.00;101994.06;5172263;27;20046;-57
2022/07/13 00:30:10;;;;;;;12.40;9.27;;;;;;;20.97;100.00;101994.66;5175921;27;20042;-52
2022/07/13 00:32:39;;;;;;;12.77;9.00;;;;;;;20.93;100.00;101993.22;5176874;27;20070;-54
2022/07/13 00:35:07;;;;;;;14.07;8.73;;;;;;;20.95;100.00;101988.56;5176523;27;20107;-54
2022/07/13 00:37:35;;;;;;;11.48;9.18;;;;;;;20.93;100.00;101979.88;5176633;27;20071;-57
2022/07/13 00:40:05;;;;;;;11.30;8.80;;;;;;;20.99;100.00;101976.63;5154883;27;20051;-54
2022/07/13 00:42:33;;;;;;;13.55;8.85;;;;;;;20.90;100.00;101967.63;5152408;27;20500;-51
2022/07/13 00:45:01;;;;;;;10.18;8.32;;;;;;;20.96;100.00;101963.53;5176122;27;20042;-51
2022/07/13 00:47:32;;;;;;;13.65;8.60;;;;;;;21.02;100.00;101965.63;5175467;27;20709;-53
2022/07/13 00:50:01;;;;;;;11.15;8.50;;;;;;;20.91;100.00;101963.09;5176493;27;20094;-57
2022/07/13 00:52:30;;;;;;;10.88;9.15;;;;;;;20.90;100.00;101953.41;5157501;27;20132;-57
2022/07/13 00:54:58;;;;;;;10.45;8.30;;;;;;;20.88;100.00;101963.41;5176375;27;20061;-54
2022/07/13 00:57:28;;;;;;;10.10;8.38;;;;;;;20.90;100.00;101950.72;5135860;27;20038;-57
2022/07/13 00:59:56;;;;;;;16.23;8.85;;;;;;;20.89;100.00;101936.53;5172983;27;20049;-53
2022/07/13 01:02:25;;;;;;;10.75;8.95;;;;;;;20.89;100.00;101949.06;5174437;27;20555;-52
2022/07/13 01:04:54;;;;;;;11.82;8.57;;;;;;;20.84;100.00;101946.78;5171842;27;20129;-53
2022/07/13 01:07:22;;;;;;;11.70;8.48;;;;;;;20.87;100.00;101934.97;5155943;27;20493;-52
2022/07/13 01:09:50;;;;;;;11.68;8.23;;;;;;;20.83;100.00;101936.25;5175646;27;20050;-57
2022/07/13 01:12:19;;;;;;;11.23;7.68;;;;;;;20.88;100.00;101942.00;5175258;27;20388;-57
2022/07/13 01:14:48;;;;;;;10.88;8.07;;;;;;;20.81;100.00;101938.22;5174813;27;20042;-57
2022/07/13 01:17:17;;;;;;;8.98;7.03;;;;;;;20.76;100.00;101934.16;5175402;27;20042;-54
2022/07/13 01:19:46;;;;;;;11.38;7.78;;;;;;;20.79;100.00;101938.34;5175294;27;20042;-52
2022/07/13 01:22:22;;;;;;;9.70;6.85;;;;;;;20.71;100.00;101924.84;5175924;27;20042;-53
2022/07/13 01:24:53;;;;;;;9.65;6.85;;;;;;;20.63;100.00;101925.53;5175404;27;20046;-53
2022/07/13 01:27:21;;;;;;;10.00;7.10;;;;;;;20.59;100.00;101924.13;5175768;27;20084;-55
2022/07/13 01:29:49;;;;;;;10.13;6.40;;;;;;;20.59;100.00;101922.28;5175942;27;20038;-57
2022/07/13 01:32:17;;;;;;;9.32;7.15;;;;;;;20.68;100.00;101925.09;5175132;27;20480;-57
2022/07/13 01:34:45;;;;;;;9.30;6.82;;;;;;;20.54;100.00;101927.19;5174954;27;20118;-58
2022/07/13 01:37:14;;;;;;;9.98;6.60;;;;;;;20.56;100.00;101927.91;5171336;27;20532;-52
2022/07/13 01:39:45;;;;;;;9.32;6.40;;;;;;;20.62;100.00;101923.81;5172374;27;20042;-52
2022/07/13 01:42:14;;;;;;;10.48;6.68;;;;;;;20.60;100.00;101918.63;5175581;27;20519;-54
2022/07/13 01:44:46;;;;;;;9.00;5.85;;;;;;;20.63;100.00;101917.50;5175559;27;20077;-58
2022/07/13 01:47:14;;;;;;;9.60;6.47;;;;;;;20.59;100.00;101910.75;5171850;27;20095;-55
2022/07/13 01:49:42;;;;;;;9.15;6.10;;;;;;;20.60;100.00;101907.06;5171933;27;20133;-55
2022/07/13 01:52:10;;;;;;;9.10;5.97;;;;;;;20.57;100.00;101899.34;5175235;27;20402;-58
2022/07/13 01:54:38;;;;;;;11.10;5.80;;;;;;;20.56;100.00;101895.84;5175151;27;20121;-57
2022/07/13 01:57:06;;;;;;;8.63;5.90;;;;;;;20.53;100.00;101911.31;5174733;27;20046;-57
2022/07/13 01:59:36;;;;;;;7.32;5.25;;;;;;;20.58;100.00;101901.03;5171655;27;20073;-52
2022/07/13 02:02:04;;;;;;;8.93;5.88;;;;;;;20.57;100.00;101910.03;5171400;27;20053;-57
2022/07/13 02:04:32;;;;;;;8.75;6.03;;;;;;;20.52;100.00;101909.59;5175363;27;20074;-49
2022/07/13 02:07:01;;;;;;;7.82;5.50;;;;;;;20.53;100.00;101908.63;5174608;27;20045;-51
2022/07/13 02:09:29;;;;;;;10.07;6.38;;;;;;;20.54;100.00;101911.16;5174825;27;20099;-51
2022/07/13 02:11:57;;;;;;;10.38;6.50;;;;;;;20.56;100.00;101906.53;5174871;27;20050;-51
2022/07/13 02:14:25;;;;;;;11.32;7.38;;;;;;;20.59;100.00;101903.56;5174898;27;20066;-54
2022/07/13 02:16:54;;;;;;;10.55;7.32;;;;;;;20.62;100.00;101899.78;5170755;27;21065;-52
2022/07/13 02:19:23;;;;;;;10.50;7.05;;;;;;;20.61;100.00;101898.09;5171715;27;20050;-58
2022/07/13 02:21:51;;;;;;;10.38;6.60;;;;;;;20.57;100.00;101892.19;5174430;27;20074;-57
2022/07/13 02:24:19;;;;;;;8.88;6.47;;;;;;;20.57;100.00;101876.16;5174644;27;20122;-57
2022/07/13 02:26:47;;;;;;;10.32;6.63;;;;;;;20.59;100.00;101884.88;5174351;27;20084;-52
2022/07/13 02:29:15;;;;;;;9.00;6.50;;;;;;;20.51;100.00;101887.41;5174393;27;20042;-53
2022/07/13 02:31:43;;;;;;;9.18;6.90;;;;;;;20.48;100.00;101892.16;5174772;27;20046;-57
2022/07/13 02:34:13;;;;;;;9.25;6.53;;;;;;;20.48;100.00;101882.34;5174141;27;20053;-57
2022/07/13 02:36:41;;;;;;;7.93;5.88;;;;;;;20.48;100.00;101876.13;5171675;27;20050;-52
2022/07/13 02:39:09;;;;;;;10.88;6.78;;;;;;;20.55;100.00;101871.94;5169816;27;20078;-53
2022/07/13 02:41:37;;;;;;;9.23;6.55;;;;;;;20.55;100.00;101855.91;5174392;27;20042;-52
2022/07/13 02:44:05;;;;;;;9.65;6.90;;;;;;;20.54;100.00;101862.22;5174256;27;20065;-54
2022/07/13 02:46:33;;;;;;;10.85;7.25;;;;;;;20.46;100.00;101854.91;5171765;27;20377;-56
2022/07/13 02:49:01;;;;;;;8.82;6.72;;;;;;;20.50;100.00;101852.81;5172301;27;20481;-57
2022/07/13 02:51:31;;;;;;;10.07;7.45;;;;;;;20.51;100.00;101841.97;5174519;27;20110;-51
2022/07/13 02:53:59;;;;;;;9.23;6.93;;;;;;;20.49;100.00;101853.78;5174726;27;20042;-53
2022/07/13 02:56:27;;;;;;;9.00;6.15;;;;;;;20.46;100.00;101846.91;5174087;27;20034;-51
2022/07/13 02:58:55;;;;;;;8.18;5.70;;;;;;;20.44;100.00;101852.38;5173016;27;20062;-50
2022/07/13 03:01:23;;;;;;;9.65;6.47;;;;;;;20.34;100.00;101845.34;5170384;27;20477;-57
2022/07/13 03:03:51;;;;;;;10.10;6.40;;;;;;;20.34;100.00;101843.53;5173077;27;20034;-52
2022/07/13 03:06:19;;;;;;;8.65;5.55;;;;;;;20.34;100.00;101843.53;5174238;27;20046;-57
2022/07/13 03:08:49;;;;;;;8.95;5.72;;;;;;;20.33;100.00;101844.50;5174457;27;20050;-50
2022/07/13 03:11:17;;;;;;;8.77;5.95;;;;;;;20.37;100.00;101848.59;5176103;27;20113;-52
2022/07/13 03:13:48;;;;;;;8.48;5.90;;;;;;;20.38;100.00;101857.44;5176142;27;20497;-57
2022/07/13 03:16:16;;;;;;;9.25;5.85;;;;;;;20.33;100.00;101857.88;5174993;27;20046;-51
2022/07/13 03:18:44;;;;;;;10.38;5.40;;;;;;;20.30;100.00;101842.13;5177139;27;20072;-57
2022/07/13 03:21:12;;;;;;;8.80;5.47;;;;;;;20.32;100.00;101840.16;5177698;27;20095;-58
2022/07/13 03:23:40;;;;;;;7.88;5.47;;;;;;;20.26;100.00;101840.72;5178045;27;20073;-53
2022/07/13 03:26:09;;;;;;;8.60;5.60;;;;;;;20.30;100.00;101839.47;5178015;27;20205;-57
2022/07/13 03:28:37;;;;;;;8.25;5.38;;;;;;;20.31;100.00;101845.63;5176337;27;20078;-51
2022/07/13 03:31:06;;;;;;;10.35;5.85;;;;;;;20.32;100.00;101836.66;5173708;27;20042;-57
2022/07/13 03:33:34;;;;;;;9.75;5.47;;;;;;;20.29;100.00;101828.88;5176746;27;20049;-57
2022/07/13 03:36:02;;;;;;;8.90;5.63;;;;;;;20.34;100.00;101818.63;5170673;27;20107;-56
2022/07/13 03:38:31;;;;;;;8.80;5.57;;;;;;;20.32;100.00;101812.59;5159287;27;20042;-51
2022/07/13 03:40:59;;;;;;;8.57;5.10;;;;;;;20.32;100.00;101813.44;5177782;27;20102;-53
2022/07/13 03:43:28;;;;;;;7.30;4.88;;;;;;;20.25;100.00;101821.16;5177399;27;20058;-57
2022/07/13 03:45:57;;;;;;;8.05;4.85;;;;;;;20.29;100.00;101824.41;5174578;27;20038;-52
2022/07/13 03:48:25;;;;;;;7.03;4.90;;;;;;;20.25;100.00;101820.34;5174403;27;20405;-53
2022/07/13 03:50:53;;;;;;;7.28;4.63;;;;;;;20.26;100.00;101819.34;5177614;27;20050;-51
2022/07/13 03:53:21;;;;;;;9.13;4.22;;;;;;;20.24;100.00;101814.13;5175751;27;20544;-57
2022/07/13 03:55:49;;;;;;;7.63;5.20;;;;;;;20.20;100.00;101810.06;5172395;27;20411;-57
2022/07/13 03:58:17;;;;;;;7.38;4.70;;;;;;;20.27;100.00;101805.84;5176397;27;20508;-57
2022/07/13 04:00:46;;;;;;;9.77;5.13;;;;;;;20.31;100.00;101800.22;5176941;27;20129;-51
2022/07/13 04:03:14;;;;;;;9.15;5.28;;;;;;;20.31;100.00;101809.06;5177166;27;20046;-57
2022/07/13 04:05:43;;;;;;;8.60;5.28;;;;;;;20.32;100.00;101808.09;5158781;27;20046;-51
2022/07/13 04:08:11;;;;;;;9.85;5.57;;;;;;;20.35;100.00;101812.31;5176967;27;20042;-52
2022/07/13 04:10:39;;;;;;;8.73;5.30;;;;;;;20.34;100.00;101800.81;5176263;27;20054;-57
2022/07/13 04:13:07;;;;;;;7.85;5.40;;;;;;;20.36;100.00;101798.81;5175771;27;20034;-57
2022/07/13 04:15:38;;;;;;;8.35;5.15;;;;;;;20.39;100.00;101797.69;5175905;27;20046;-50
2022/07/13 04:18:08;;;;;;;7.80;5.00;;;;;;;20.38;100.00;101796.88;5176193;27;20046;-52
2022/07/13 04:20:36;;;;;;;8.73;4.65;;;;;;;20.35;100.00;101791.78;5176723;27;20125;-52
2022/07/13 04:23:04;;;;;;;9.10;4.82;;;;;;;20.35;100.00;101797.13;5175750;27;20300;-57
2022/07/13 04:25:32;;;;;;;9.10;4.72;;;;;;;20.32;100.00;101800.09;5176670;27;20099;-49
2022/07/13 04:28:00;;;;;;;8.15;5.28;;;;;;;20.30;100.00;101802.06;5175772;27;20031;-50
2022/07/13 04:30:28;;;;;;;6.60;4.25;;;;;;;20.31;100.00;101793.03;5172730;27;20046;-57
2022/07/13 04:32:56;;;;;;;7.00;4.43;;;;;;;20.33;100.00;101798.25;5174144;27;20050;-49
2022/07/13 04:35:26;;;;;;;7.20;4.20;;;;;;;20.31;100.00;101801.06;5176875;27;20058;-52
2022/07/13 04:37:54;;;;;;;8.48;3.65;;;;;;;20.28;100.00;101796.00;5176558;27;20190;-57
2022/07/13 04:40:22;;;;;;;8.27;4.13;;;;;;;20.28;100.00;101788.00;5171507;27;20042;-57
2022/07/13 04:42:50;;;;;;;8.00;4.32;;;;;;;20.31;100.00;101786.88;5172191;27;20385;-57
2022/07/13 04:45:19;;;;;;;6.95;3.83;;;;;;;20.35;100.00;101778.44;5173356;27;20484;-57
2022/07/13 04:47:48;;;;;;;8.18;4.78;;;;;;;20.32;100.00;101778.72;5175439;27;20026;-53
2022/07/13 04:50:17;;;;;;;8.20;4.15;;;;;;;20.33;100.00;101783.09;5175316;27;20056;-57
2022/07/13 04:52:47;;;;;;;8.05;4.07;;;;;;;20.33;99.64;101777.75;5171602;27;20477;-57
2022/07/13 04:55:16;;;;;;;6.68;3.92;;;;;;;20.38;100.00;101772.81;5172163;27;20038;-49
2022/07/13 04:57:44;;;;;;;6.60;3.90;;;;;;;20.42;100.00;101776.03;5174508;27;20113;-51
2022/07/13 05:00:13;;;;;;;7.43;3.97;;;;;;;20.46;99.95;101773.94;5171360;27;20038;-53
2022/07/13 05:02:41;;;;;;;8.98;4.80;;;;;;;20.51;99.78;101769.84;5173726;27;20058;-57
2022/07/13 05:05:10;;;;;;;7.30;4.28;;;;;;;20.58;100.00;101776.28;5175256;27;20369;-56
2022/07/13 05:07:38;;;;;;;7.72;4.88;;;;;;;20.60;99.73;101766.31;5173174;27;20545;-51
2022/07/13 05:10:09;;;;;;;7.55;4.32;;;;;;;20.66;99.24;101772.06;5174550;27;20449;-51
2022/07/13 05:12:39;;;;;;;10.32;4.90;;;;;;;20.72;100.00;101775.06;5175177;27;20091;-56
2022/07/13 05:15:09;;;;;;;6.75;4.07;;;;;;;20.77;100.00;101771.94;5155995;27;20045;-53
2022/07/13 05:17:37;;;;;;;8.60;4.68;;;;;;;20.80;100.00;101773.47;5171921;27;20034;-52
2022/07/13 05:20:07;;;;;;;8.98;4.25;;;;;;;20.81;100.00;101772.50;5171287;27;20396;-56
2022/07/13 05:22:35;;;;;;;8.85;4.07;;;;;;;20.86;100.00;101767.53;5175180;27;20050;-57
2022/07/13 05:25:03;;;;;;;8.80;5.22;;;;;;;20.88;99.39;101768.25;5174634;27;20062;-57
2022/07/13 05:27:33;;;;;;;7.95;4.47;;;;;;;20.92;98.67;101762.44;5171686;27;20049;-57
2022/07/13 05:30:01;;;;;;;7.03;4.47;;;;;;;20.98;98.36;101766.38;5170690;27;20042;-57
2022/07/13 05:32:29;;;;;;;8.13;4.20;;;;;;;21.04;100.00;101773.81;5173550;27;20140;-57
2022/07/13 05:34:57;;;;;;;7.75;4.22;;;;;;;21.09;100.00;101776.91;5169606;27;20064;-57
2022/07/13 05:37:25;;;;;;;6.90;4.20;;;;;;;21.16;100.00;101776.28;5171190;27;20062;-57
2022/07/13 05:39:53;;;;;;;9.07;4.30;;;;;;;21.22;100.00;101784.56;5171707;27;20106;-57
2022/07/13 05:42:21;;;;;;;9.13;4.70;;;;;;;21.28;100.00;101783.16;5174207;27;20446;-58
2022/07/13 05:44:51;;;;;;;9.07;4.40;;;;;;;21.33;100.00;101788.06;5174132;27;20043;-55
2022/07/13 05:47:19;;;;;;;6.95;4.57;;;;;;;21.39;98.46;101779.44;5174161;27;20046;-56
2022/07/13 05:49:47;;;;;;;11.95;5.18;;;;;;;21.45;97.23;101781.53;5174282;27;20117;-57
2022/07/13 05:52:15;;;;;;;9.93;4.90;;;;;;;21.52;98.66;101787.13;5153365;27;20046;-55
2022/07/13 05:54:43;;;;;;;10.18;4.78;;;;;;;21.58;100.00;101786.53;5170027;27;20067;-48
2022/07/13 05:57:12;;;;;;;10.85;5.18;;;;;;;21.60;96.84;101792.59;5171101;27;20133;-49
2022/07/13 05:59:40;;;;;;;9.40;4.82;;;;;;;21.65;99.73;101795.69;5174266;27;20038;-56
2022/07/13 06:02:10;;;;;;;11.23;5.20;;;;;;;21.71;98.54;101786.19;5174418;27;20423;-57
2022/07/13 06:04:39;;;;;;;10.40;5.70;;;;;;;21.74;97.39;101789.41;5174150;27;20054;-56
2022/07/13 06:07:07;;;;;;;9.23;5.18;;;;;;;21.78;94.24;101777.41;5173890;27;20129;-50
2022/07/13 06:09:35;;;;;;;8.40;6.20;;;;;;;21.86;94.18;101784.69;5171704;27;20050;-56
2022/07/13 06:12:03;;;;;;;10.82;5.75;;;;;;;21.95;93.11;101785.59;5174206;27;20396;-56
2022/07/13 06:14:32;;;;;;;8.55;5.72;;;;;;;21.97;92.77;101793.50;5173303;27;20059;-51
2022/07/13 06:17:00;;;;;;;9.35;6.20;;;;;;;22.01;88.72;101784.16;5155034;27;20070;-52
2022/07/13 06:19:30;;;;;;;10.48;6.80;;;;;;;22.03;87.70;101775.00;5172828;27;20042;-49
2022/07/13 06:21:58;;;;;;;9.98;6.07;;;;;;;22.15;89.83;101786.28;5170540;27;20076;-51
2022/07/13 06:24:26;;;;;;;10.35;6.20;;;;;;;22.21;90.99;101780.34;5174161;27;20057;-57
2022/07/13 06:26:54;;;;;;;10.20;6.63;;;;;;;22.25;88.01;101776.34;5174634;27;20125;-57
2022/07/13 06:29:22;;;;;;;10.98;6.88;;;;;;;22.29;85.46;101768.81;5174835;27;20042;-47
2022/07/13 06:31:50;;;;;;;9.85;6.72;;;;;;;22.36;86.45;101771.75;5174829;27;20050;-56
2022/07/13 06:34:18;;;;;;;10.40;6.80;;;;;;;22.43;85.65;101768.31;5175309;27;20077;-57
2022/07/13 06:36:47;;;;;;;12.18;7.10;;;;;;;22.49;85.17;101779.41;5171671;27;20058;-57
2022/07/13 06:39:15;;;;;;;11.60;7.15;;;;;;;22.56;87.29;101767.06;5170986;27;20184;-51
2022/07/13 06:41:43;;;;;;;14.27;7.57;;;;;;;22.60;86.65;101769.25;5173755;27;20084;-51
2022/07/13 06:44:11;;;;;;;14.85;7.72;;;;;;;22.71;87.65;101765.47;5170671;27;20049;-56
2022/07/13 06:46:40;;;;;;;13.45;8.48;;;;;;;22.87;86.01;101758.56;5175405;27;20125;-50
2022/07/13 06:49:08;;;;;;;11.90;7.60;;;;;;;23.02;85.06;101758.81;5178746;27;20050;-57
2022/07/13 06:51:37;;;;;;;12.07;7.55;;;;;;;23.12;83.93;101765.75;5178894;27;20050;-57
2022/07/13 06:54:11;;;;;;;14.38;7.55;;;;;;;23.24;82.90;101776.19;5178742;27;20046;-57
2022/07/13 06:56:39;;;;;;;14.63;8.07;;;;;;;23.34;83.21;101778.75;5158260;27;20085;-56
2022/07/13 06:59:07;;;;;;;12.25;8.10;;;;;;;23.43;83.39;101772.41;5175282;27;20073;-49
2022/07/13 07:01:35;;;;;;;13.77;7.70;;;;;;;23.53;79.49;101764.22;5177153;27;20045;-53
2022/07/13 07:04:03;;;;;;;13.20;7.55;;;;;;;23.59;81.12;101767.09;5178564;27;20046;-52
2022/07/13 07:06:31;;;;;;;11.63;7.28;;;;;;;23.68;80.54;101765.25;5174675;27;20362;-51
2022/07/13 07:08:59;;;;;;;12.77;7.18;;;;;;;23.75;78.88;101779.72;5175488;27;20118;-57
2022/07/13 07:11:29;;;;;;;10.25;7.30;;;;;;;23.70;79.34;101778.53;5178322;27;20110;-50
2022/07/13 07:13:58;;;;;;;11.90;7.68;;;;;;;23.78;77.91;101779.38;5178317;27;20050;-51
2022/07/13 07:16:26;;;;;;;11.23;7.10;;;;;;;23.89;78.55;101780.13;5178383;27;20042;-57
2022/07/13 07:18:54;;;;;;;10.13;7.40;;;;;;;24.00;77.13;101782.47;5174883;27;20476;-57
2022/07/13 07:21:42;;;;;;;11.43;6.93;;;;;;;24.19;78.94;101775.94;5157240;27;20573;-51
2022/07/13 07:24:10;;;;;;;10.52;6.82;;;;;;;24.34;77.78;101786.88;5178182;27;20496;-57
2022/07/13 07:26:39;;;;;;;10.70;6.93;;;;;;;24.39;75.43;101775.59;5178265;27;20042;-57
2022/07/13 07:29:08;;;;;;;10.93;6.53;;;;;;;24.44;75.07;101767.88;5174680;27;20052;-57
2022/07/13 07:31:36;;;;;;;10.55;6.78;;;;;;;24.48;74.94;101779.97;5174808;27;20057;-57
2022/07/13 07:34:04;;;;;;;9.82;6.63;;;;;;;24.70;75.32;101775.75;5177752;27;20070;-57
2022/07/13 07:36:32;;;;;;;11.73;7.20;;;;;;;24.90;74.11;101776.22;5155254;27;20050;-49
2022/07/13 07:39:00;;;;;;;11.95;6.60;;;;;;;25.13;74.15;101779.00;5156762;27;20047;-57
2022/07/13 07:41:28;;;;;;;13.57;7.10;;;;;;;25.32;71.06;101771.53;5157144;27;20050;-50
2022/07/13 07:43:59;;;;;;;9.70;7.30;;;;;;;25.48;70.62;101778.72;5156824;27;20043;-49
2022/07/13 07:46:27;;;;;;;11.48;6.45;;;;;;;25.60;71.12;101769.22;5156580;27;20400;-50
2022/07/13 07:48:56;;;;;;;10.73;7.07;;;;;;;25.80;70.10;101769.59;5154541;27;20067;-57
2022/07/13 07:51:24;;;;;;;11.63;7.30;;;;;;;25.94;69.83;101770.69;5152686;27;20512;-57
2022/07/13 07:54:13;;;;;;;11.88;6.18;;;;;;;26.05;68.63;101763.22;5155204;27;20401;-49
2022/07/13 07:56:41;;;;;;;11.25;6.38;;;;;;;26.09;68.61;101768.06;5155618;27;20034;-51
2022/07/13 07:59:10;;;;;;;11.30;6.40;;;;;;;26.17;68.00;101769.03;5156102;27;20400;-57
2022/07/13 08:01:39;;;;;;;9.60;5.32;;;;;;;26.15;68.56;101770.06;5156155;27;20057;-56
2022/07/13 08:04:07;;;;;;;9.10;5.25;;;;;;;26.25;67.39;101758.19;5156190;27;20039;-48
2022/07/13 08:06:37;;;;;;;11.27;5.63;;;;;;;26.41;66.63;101760.72;5152874;27;20058;-48
2022/07/13 08:09:05;;;;;;;8.40;4.95;;;;;;;26.54;66.29;101764.66;5151005;27;20039;-57
2022/07/13 08:11:34;;;;;;;8.00;5.05;;;;;;;26.61;65.36;101762.91;5156428;27;20043;-53
2022/07/13 08:14:02;;;;;;;8.18;4.90;;;;;;;26.67;65.60;101756.78;5154971;27;20446;-55
2022/07/13 08:16:31;;;;;;;9.52;4.70;;;;;;;26.65;64.28;101756.09;5152654;27;20054;-54
2022/07/13 08:18:59;;;;;;;10.20;4.55;;;;;;;26.75;66.02;101751.31;5155098;27;20122;-55
2022/07/13 08:21:47;;;;;;;8.88;4.43;;;;;;;26.70;65.18;101753.72;5152765;27;20050;-55
2022/07/13 08:24:15;;;;;;;8.90;4.38;;;;;;;26.82;63.85;101757.63;5153512;27;20046;-51
2022/07/13 08:26:44;;;;;;;8.70;4.20;;;;;;;26.93;64.92;101753.63;5156048;27;20493;-52
2022/07/13 08:29:13;;;;;;;7.95;3.95;;;;;;;26.99;64.47;101766.38;5155758;27;20058;-51
2022/07/13 08:31:43;;;;;;;8.60;4.55;;;;;;;27.11;63.10;101761.34;5155935;27;20050;-49
2022/07/13 08:39:42;;;;;;;7.72;3.92;;;;;;;27.77;63.54;101760.50;5177086;27;20426;-57
2022/07/13 08:42:13;;;;;;;7.32;4.10;;;;;;;27.91;62.96;101761.44;5172969;27;20070;-51
2022/07/13 08:44:41;;;;;;;10.05;4.30;;;;;;;28.08;62.34;101762.03;5173507;27;20061;-50
2022/07/13 08:47:11;;;;;;;7.68;3.67;;;;;;;28.29;61.84;101758.50;5176599;27;20277;-56
2022/07/13 08:49:40;;;;;;;8.75;5.28;;;;;;;28.22;60.52;101767.56;5176792;27;20038;-51
2022/07/13 08:52:10;;;;;;;10.85;5.00;;;;;;;28.19;61.02;101762.56;5176307;27;20038;-52
2022/07/13 08:54:38;;;;;;;9.27;5.38;;;;;;;28.32;61.60;101760.78;5176599;27;20042;-56
2022/07/13 08:57:06;;;;;;;10.75;4.75;;;;;;;28.45;61.69;101764.63;5176568;27;20086;-52
2022/07/13 08:59:34;;;;;;;8.15;4.80;;;;;;;28.58;59.37;101762.03;5158059;27;20393;-56
2022/07/13 09:02:02;;;;;;;8.43;4.80;;;;;;;28.74;59.24;101766.31;5176386;27;20058;-56
2022/07/13 09:04:32;;;;;;;10.45;5.00;;;;;;;28.87;61.11;101770.13;5173860;27;20457;-50
2022/07/13 09:07:00;;;;;;;9.93;4.80;;;;;;;28.95;58.80;101773.50;5172281;27;20050;-50
2022/07/13 09:09:32;;;;;;;9.98;4.43;;;;;;;29.19;58.35;101771.31;5174571;27;20034;-56
2022/07/13 09:12:22;;;;;;;9.77;4.97;;;;;;;29.27;57.02;101771.22;5170708;27;20121;-56
2022/07/13 09:14:52;;;;;;;10.05;4.50;;;;;;;29.47;56.83;101776.66;5174467;27;20038;-54
2022/07/13 09:17:35;;;;;;;7.93;5.00;;;;;;;29.42;53.91;101772.91;5175984;27;20038;-55
2022/07/13 09:20:19;;;;;;;10.55;4.30;;;;;;;29.54;54.49;101773.97;5175771;27;20042;-57
2022/07/13 09:23:01;;;;;;;9.07;4.47;;;;;;;29.42;54.25;101772.91;5175697;27;20054;-55
2022/07/13 09:25:32;;;;;;;7.13;3.90;;;;;;;29.40;54.33;101772.28;5175821;27;20070;-54
2022/07/13 09:28:05;;;;;;;9.55;4.45;;;;;;;29.41;54.78;101772.09;5175525;27;20567;-56
2022/07/13 09:30:34;;;;;;;;;;;;;;;29.78;54.06;101769.88;5176224;27;20055;-51
2022/07/13 09:33:03;;;;;;;9.25;4.75;;;;;;;29.65;52.99;101767.97;5175610;27;19918;-56
2022/07/13 09:35:47;;;;;;;7.32;4.00;;;;;;;29.94;55.35;101775.97;5175321;27;20042;-56
2022/07/13 09:38:30;;;;;;;8.60;4.43;;;;;;;29.83;54.62;101769.25;5175494;27;20042;-56
2022/07/13 09:41:15;;;;;;;7.43;4.30;;;;;;;30.14;53.64;101770.56;5175757;27;20069;-57
2022/07/13 09:46:55;;;;;;;8.50;4.15;;;;;;;30.61;52.33;101760.53;5126399;27;20129;-56
2022/07/13 09:49:35;;;;;;;8.88;4.18;;;;;;;30.82;49.92;101761.31;5175312;27;20049;-56
2022/07/13 09:52:07;;;;;;;7.25;4.13;;;;;;;30.82;49.98;101764.84;5175301;27;20046;-55
2022/07/13 09:54:37;;;;;;;7.28;3.72;;;;;;;31.10;50.40;101774.63;5175387;27;20041;-52
2022/07/13 09:57:08;;;;;;;7.68;4.30;;;;;;;31.37;49.46;101768.25;5175103;27;20035;-48
2022/07/13 09:59:38;;;;;;;9.18;4.35;;;;;;;31.30;48.89;101769.09;5174747;27;20038;-49
2022/07/13 10:02:07;;;;;;;7.10;3.50;;;;;;;31.60;48.73;101767.72;5170972;27;20480;-52
2022/07/13 10:04:36;;;;;;;7.88;5.00;;;;;;;31.22;47.18;101766.63;5172888;27;20034;-51
2022/07/13 10:07:21;;;;;;;10.98;5.30;;;;;;;30.99;47.87;101770.66;5175108;27;20046;-55
2022/07/13 10:09:49;;;;;;;8.98;4.65;;;;;;;31.40;47.88;101782.25;5171161;27;20049;-50
2022/07/13 10:12:18;;;;;;;8.20;4.40;;;;;;;31.71;46.78;101779.78;5169768;27;20050;-50
2022/07/13 10:14:48;;;;;;;8.93;4.00;;;;;;;31.79;46.11;101777.63;5175056;27;20125;-52
2022/07/13 10:17:22;;;;;;;7.60;4.35;;;;;;;31.96;45.57;101771.66;5174911;27;20136;-56
2022/07/13 10:19:58;;;;;;;7.85;3.90;;;;;;;32.09;45.11;101777.00;5174403;27;20197;-50
2022/07/13 10:22:31;;;;;;;11.20;4.63;;;;;;;32.46;44.27;101770.84;5173703;27;20057;-57
2022/07/13 10:25:00;;;;;;;6.70;2.97;;;;;;;32.53;43.39;101777.91;5152161;27;20070;-57
2022/07/13 10:27:30;;;;;;;7.70;2.70;;;;;;;32.79;41.08;101780.56;5170955;27;20043;-57
2022/07/13 10:30:00;;;;;;;7.75;3.10;;;;;;;32.96;40.49;101773.47;5172551;27;20121;-50
2022/07/13 10:32:29;;;;;;;8.35;4.10;;;;;;;33.04;41.61;101777.78;5170805;27;20054;-57
2022/07/13 10:34:59;;;;;;;7.28;3.60;;;;;;;32.79;41.19;101783.31;5174706;27;20535;-55
2022/07/13 10:37:29;;;;;;;6.22;3.17;;;;;;;32.80;41.12;101780.34;5172693;27;20054;-50
2022/07/13 10:40:12;;;;;;;9.32;3.20;;;;;;;33.10;41.96;101782.31;5170298;27;20519;-56
2022/07/13 10:43:17;;;;;;;6.95;3.65;;;;;;;33.20;41.09;101788.06;5172346;27;20501;-52
2022/07/13 10:45:51;;;;;;;6.45;3.33;;;;;;;33.44;41.66;101790.09;5174118;27;20562;-51
2022/07/13 10:48:47;;;;;;;5.97;3.17;;;;;;;33.46;40.12;101782.50;5174060;27;20064;-51
2022/07/13 10:51:20;;;;;;;6.13;3.33;;;;;;;33.56;40.05;101779.25;5173780;27;20517;-57
2022/07/13 10:54:10;;;;;;;6.22;3.40;;;;;;;33.29;39.21;101777.69;5173833;27;20042;-56
2022/07/13 10:57:15;;;;;;;7.45;3.20;;;;;;;33.60;40.40;101781.25;5174040;27;20042;-56
2022/07/13 10:59:47;;;;;;;5.63;2.78;;;;;;;33.94;39.76;101776.16;5173792;27;20039;-55
2022/07/13 11:02:43;;;;;;;6.63;3.00;;;;;;;34.27;39.46;101766.56;5155763;27;20056;-56
2022/07/13 11:05:12;;;;;;;6.43;3.13;;;;;;;34.36;39.44;101773.38;5162715;27;20489;-57
2022/07/13 11:07:41;;;;;;;8.32;3.22;;;;;;;34.60;37.49;101772.53;5170762;27;20042;-50
2022/07/13 11:10:21;;;;;;;9.15;3.00;;;;;;;34.76;39.23;101776.44;5173073;27;20035;-53
2022/07/13 11:13:01;;;;;;;5.57;2.90;;;;;;;34.66;38.34;101775.13;5174196;27;20063;-53
2022/07/13 11:15:43;;;;;;;5.53;2.90;;;;;;;35.03;37.98;101782.22;5174596;27;20081;-52
2022/07/13 11:18:31;;;;;;;4.68;2.90;;;;;;;34.72;37.05;101776.06;5174332;27;20046;-56
2022/07/13 11:21:01;;;;;;;6.55;2.88;;;;;;;35.07;37.59;101777.94;5174386;27;20034;-51
2022/07/13 11:26:46;;;;;;;6.70;2.70;;;;;;;34.68;36.69;101774.91;5174150;27;20054;-57
2022/07/13 11:29:19;;;;;;;4.63;2.60;;;;;;;34.75;37.07;101782.97;5170825;27;20400;-52
2022/07/13 11:31:47;;;;;;;;;;;;;;;34.53;37.07;101789.03;5173081;27;20454;-52
2022/07/13 11:34:15;;;;;;;6.85;2.40;;;;;;;34.65;36.44;101786.31;5178029;27;19923;-49
2022/07/13 11:36:43;;;;;;;5.82;2.40;;;;;;;34.49;35.80;101788.66;5177812;27;20054;-52
2022/07/13 11:39:23;;;;;;;4.05;2.33;;;;;;;34.72;34.77;101791.63;5178018;27;20180;-56
2022/07/13 11:41:53;;;;;;;5.88;2.05;;;;;;;34.97;34.67;101783.19;5177619;27;20053;-57
2022/07/13 11:44:23;;;;;;;4.70;2.10;;;;;;;34.92;35.91;101781.19;5174170;27;20121;-56